Time;durP1;ratioP1;P1;durP2;ratioP2;P2;SDS_P1;SDS_P2;PMS_P1;PMS_P2;Temp;Humidity;BMP_temperature;BMP_pressure;BME280_temperature;BME280_humidity;BME280_pressure;Samples;Min_cycle;Max_cycle;Signal;HPM_P1;HPM_P2
2022/10/04 00:02:29;;;;;;;4.50;4.30;;;;;;;;;;4992212;28;20042;-69
2022/10/04 00:05:04;;;;;;;4.32;4.13;;;;;;;;;;5001666;28;20215;-69
2022/10/04 00:07:36;;;;;;;4.60;4.40;;;;;;;;;;4998884;28;20034;-69
2022/10/04 00:10:17;;;;;;;4.65;4.45;;;;;;;;;;5000513;28;20102;-70
2022/10/04 00:12:49;;;;;;;4.75;4.55;;;;;;;;;;5001129;28;20034;-70
2022/10/04 00:15:27;;;;;;;4.55;4.35;;;;;;;;;;4998448;28;20037;-70
2022/10/04 00:18:11;;;;;;;4.35;4.15;;;;;;;;;;4993214;28;20554;-71
2022/10/04 00:20:46;;;;;;;4.70;4.50;;;;;;;;;;5004531;28;20040;-70
2022/10/04 00:23:24;;;;;;;4.57;4.38;;;;;;;;;;4999353;28;20057;-70
2022/10/04 00:26:04;;;;;;;4.30;4.10;;;;;;;;;;5003376;28;20468;-70
2022/10/04 00:28:43;;;;;;;4.63;4.43;;;;;;;;;;4998176;28;20121;-69
2022/10/04 00:31:11;;;;;;;8.50;7.85;;;;;;;;;;5001688;28;20037;-71
2022/10/04 00:33:47;;;;;;;4.82;4.63;;;;;;;;;;4998650;28;20036;-70
2022/10/04 00:36:25;;;;;;;4.50;4.30;;;;;;;;;;5000331;28;20584;-70
2022/10/04 00:39:03;;;;;;;4.53;4.32;;;;;;;;;;4989712;28;20061;-69
2022/10/04 00:41:47;;;;;;;4.47;4.28;;;;;;;;;;5000000;28;20394;-70
2022/10/04 00:44:36;;;;;;;4.32;4.13;;;;;;;;;;4995507;28;20038;-70
2022/10/04 00:47:12;;;;;;;4.60;4.40;;;;;;;;;;4971518;28;20149;-71
2022/10/04 00:49:41;;;;;;;4.50;4.30;;;;;;;;;;4997964;28;20030;-69
2022/10/04 00:52:14;;;;;;;6.55;6.15;;;;;;;;;;4999873;28;20042;-68
2022/10/04 00:54:45;;;;;;;4.47;4.28;;;;;;;;;;4997943;28;20029;-70
2022/10/04 00:57:21;;;;;;;4.50;4.30;;;;;;;;;;4997157;28;20033;-70
2022/10/04 00:59:51;;;;;;;4.53;4.32;;;;;;;;;;5000032;28;20033;-71
2022/10/04 01:02:27;;;;;;;4.60;4.40;;;;;;;;;;4991702;28;20032;-71
2022/10/04 01:04:56;;;;;;;4.80;4.55;;;;;;;;;;4995698;28;20041;-71
2022/10/04 01:07:45;;;;;;;4.40;4.20;;;;;;;;;;4991388;28;20096;-70
2022/10/04 01:10:21;;;;;;;4.32;4.13;;;;;;;;;;4989033;28;20296;-71
2022/10/04 01:12:56;;;;;;;4.50;4.30;;;;;;;;;;4999719;28;20040;-72
2022/10/04 01:15:35;;;;;;;4.30;4.10;;;;;;;;;;5003511;28;20045;-70
2022/10/04 01:18:10;;;;;;;4.55;4.35;;;;;;;;;;4998155;28;20121;-71
2022/10/04 01:20:48;;;;;;;4.55;4.35;;;;;;;;;;4998530;28;20077;-71
2022/10/04 01:23:40;;;;;;;4.32;4.13;;;;;;;;;;4998767;28;20477;-70
2022/10/04 01:26:29;;;;;;;4.75;4.55;;;;;;;;;;4989585;28;20049;-70
2022/10/04 01:28:57;;;;;;;4.50;4.30;;;;;;;;;;4981426;28;20069;-69
2022/10/04 01:31:25;;;;;;;4.53;4.32;;;;;;;;;;5000339;28;20044;-72
2022/10/04 01:33:51;;;;;;;4.28;4.07;;;;;;;;;;4992044;28;20044;-70
2022/10/04 01:36:17;;;;;;;4.53;4.32;;;;;;;;;;5000916;28;20109;-70
2022/10/04 01:38:43;;;;;;;4.43;4.22;;;;;;;;;;5003421;28;20493;-70
2022/10/04 01:41:10;;;;;;;4.40;4.20;;;;;;;;;;5004907;28;20117;-70
2022/10/04 01:43:38;;;;;;;4.57;4.38;;;;;;;;;;5004123;28;20033;-70
2022/10/04 01:46:12;;;;;;;4.50;4.30;;;;;;;;;;4993930;28;20080;-71
2022/10/04 01:48:42;;;;;;;4.72;4.53;;;;;;;;;;5000909;28;20494;-71
2022/10/04 01:51:20;;;;;;;4.28;4.07;;;;;;;;;;4999284;28;20399;-71
2022/10/04 01:53:52;;;;;;;4.60;4.40;;;;;;;;;;5002089;28;20030;-73
2022/10/04 01:56:26;;;;;;;4.38;4.18;;;;;;;;;;5003782;28;20029;-71
2022/10/04 01:59:00;;;;;;;4.20;4.00;;;;;;;;;;5005491;28;20030;-71
2022/10/04 02:01:52;;;;;;;3.90;3.80;;;;;;;;;;5004947;28;20034;-71
2022/10/04 02:04:22;;;;;;;4.10;3.90;;;;;;;;;;4964766;28;20092;-71
2022/10/04 02:06:53;;;;;;;4.40;4.20;;;;;;;;;;4998379;28;20066;-71
2022/10/04 02:09:23;;;;;;;4.57;4.38;;;;;;;;;;5010375;28;20042;-71
2022/10/04 02:11:51;;;;;;;4.45;4.25;;;;;;;;;;5009880;28;20037;-72
2022/10/04 02:14:19;;;;;;;4.50;4.30;;;;;;;;;;5008277;28;20113;-72
2022/10/04 02:16:51;;;;;;;4.30;4.10;;;;;;;;;;4995870;28;20041;-72
2022/10/04 02:19:18;;;;;;;3.90;3.80;;;;;;;;;;5003627;28;20056;-72
2022/10/04 02:21:46;;;;;;;4.05;3.90;;;;;;;;;;4999017;28;20231;-71
2022/10/04 02:24:12;;;;;;;3.80;3.70;;;;;;;;;;4998719;28;20053;-70
2022/10/04 02:26:38;;;;;;;4.13;3.95;;;;;;;;;;5001952;28;20030;-70
2022/10/04 02:29:03;;;;;;;4.28;4.07;;;;;;;;;;5006883;28;20038;-71
2022/10/04 02:34:17;;;;;;;4.40;4.20;;;;;;;;;;5002293;28;20092;-71
2022/10/04 02:36:44;;;;;;;4.60;4.40;;;;;;;;;;5001293;28;20038;-71
2022/10/04 02:39:20;;;;;;;4.22;4.03;;;;;;;;;;4992660;28;20056;-71
2022/10/04 02:41:53;;;;;;;4.30;4.10;;;;;;;;;;5000730;28;20037;-71
2022/10/04 02:44:21;;;;;;;4.25;4.05;;;;;;;;;;5007345;28;20045;-69
2022/10/04 02:47:08;;;;;;;4.43;4.22;;;;;;;;;;5003934;28;20046;-71
2022/10/04 02:49:38;;;;;;;4.45;4.25;;;;;;;;;;4999209;28;20156;-71
2022/10/04 02:52:15;;;;;;;4.40;4.20;;;;;;;;;;5004728;28;20099;-71
2022/10/04 02:54:47;;;;;;;4.43;4.22;;;;;;;;;;5000283;28;20084;-72
2022/10/04 02:57:23;;;;;;;4.57;4.38;;;;;;;;;;5001578;28;20034;-69
2022/10/04 02:59:49;;;;;;;4.45;4.25;;;;;;;;;;4999167;28;20072;-70
2022/10/04 03:03:01;;;;;;;4.50;4.30;;;;;;;;;;5006462;28;20148;-70
2022/10/04 03:05:27;;;;;;;4.35;4.15;;;;;;;;;;4997632;28;20069;-71
2022/10/04 03:07:53;;;;;;;4.47;4.28;;;;;;;;;;4999049;28;20646;-71
2022/10/04 03:10:18;;;;;;;4.55;4.35;;;;;;;;;;5000247;28;20076;-72
2022/10/04 03:12:49;;;;;;;4.10;3.90;;;;;;;;;;4991165;28;20037;-71
2022/10/04 03:15:15;;;;;;;4.40;4.20;;;;;;;;;;4999525;28;20397;-72
2022/10/04 03:17:42;;;;;;;4.18;3.97;;;;;;;;;;4997595;28;20035;-71
2022/10/04 03:20:13;;;;;;;4.38;4.18;;;;;;;;;;4999279;28;20038;-68
2022/10/04 03:22:40;;;;;;;4.50;4.30;;;;;;;;;;4999466;28;20046;-72
2022/10/04 03:25:13;;;;;;;4.40;4.20;;;;;;;;;;5007467;28;20033;-72
2022/10/04 03:27:41;;;;;;;4.55;4.35;;;;;;;;;;4999733;28;20490;-72
2022/10/04 03:30:12;;;;;;;4.60;4.40;;;;;;;;;;4997580;28;20120;-69
2022/10/04 03:32:38;;;;;;;4.53;4.32;;;;;;;;;;4996806;28;20037;-72
2022/10/04 03:35:06;;;;;;;4.40;4.20;;;;;;;;;;4997912;28;20128;-71
2022/10/04 03:37:36;;;;;;;4.60;4.40;;;;;;;;;;4997749;28;20187;-72
2022/10/04 03:40:07;;;;;;;8.38;7.75;;;;;;;;;;4999897;28;20092;-71
2022/10/04 03:42:35;;;;;;;4.53;4.32;;;;;;;;;;5002461;28;20034;-69
2022/10/04 03:45:06;;;;;;;4.10;3.90;;;;;;;;;;5003172;28;20711;-72
2022/10/04 03:47:34;;;;;;;3.92;3.83;;;;;;;;;;4994395;28;20048;-70
2022/10/04 03:50:09;;;;;;;4.28;4.07;;;;;;;;;;4999168;28;20045;-74
2022/10/04 03:52:36;;;;;;;4.28;4.07;;;;;;;;;;4999208;28;20083;-69
2022/10/04 03:55:05;;;;;;;4.07;3.90;;;;;;;;;;5002978;28;20041;-72
2022/10/04 03:57:32;;;;;;;3.75;3.65;;;;;;;;;;5001090;28;20030;-72
2022/10/04 03:59:59;;;;;;;4.30;4.10;;;;;;;;;;5000113;28;20034;-71
2022/10/04 04:02:28;;;;;;;4.40;4.20;;;;;;;;;;4992923;28;20038;-69
2022/10/04 04:05:07;;;;;;;4.30;4.10;;;;;;;;;;4998527;28;20069;-70
2022/10/04 04:07:42;;;;;;;4.20;4.00;;;;;;;;;;4997505;28;20250;-71
2022/10/04 04:10:23;;;;;;;4.55;4.35;;;;;;;;;;4996011;28;20084;-70
2022/10/04 04:13:14;;;;;;;4.13;3.92;;;;;;;;;;4993559;28;20133;-71
2022/10/04 04:15:42;;;;;;;4.88;4.68;;;;;;;;;;4992747;28;20077;-70
2022/10/04 04:18:18;;;;;;;4.55;4.35;;;;;;;;;;4999199;28;20029;-72
2022/10/04 04:20:44;;;;;;;4.40;4.20;;;;;;;;;;4998706;28;20102;-71
2022/10/04 04:23:21;;;;;;;4.30;4.10;;;;;;;;;;4997990;28;20030;-69
2022/10/04 04:25:49;;;;;;;4.30;4.10;;;;;;;;;;4991136;28;20405;-71
2022/10/04 04:28:25;;;;;;;4.20;4.00;;;;;;;;;;5000930;28;20034;-70
2022/10/04 04:30:57;;;;;;;4.45;4.25;;;;;;;;;;5003854;28;20042;-70
2022/10/04 04:33:30;;;;;;;5.68;5.43;;;;;;;;;;5002286;28;20478;-68
2022/10/04 04:36:03;;;;;;;4.82;4.63;;;;;;;;;;4998739;28;20066;-72
2022/10/04 04:38:30;;;;;;;4.78;4.57;;;;;;;;;;4994977;28;20037;-69
2022/10/04 04:40:56;;;;;;;4.60;4.40;;;;;;;;;;5001067;28;20034;-70
2022/10/04 04:43:26;;;;;;;4.63;4.43;;;;;;;;;;5001183;28;20141;-70
2022/10/04 04:45:53;;;;;;;4.50;4.30;;;;;;;;;;5002082;28;20034;-70
2022/10/04 04:48:20;;;;;;;4.68;4.47;;;;;;;;;;5005242;28;20034;-68
2022/10/04 04:50:53;;;;;;;4.72;4.53;;;;;;;;;;5004691;28;20100;-70
2022/10/04 04:53:26;;;;;;;4.53;4.32;;;;;;;;;;4999339;28;20030;-70
2022/10/04 04:55:57;;;;;;;4.55;4.35;;;;;;;;;;4993782;28;20038;-69
2022/10/04 04:58:32;;;;;;;4.53;4.32;;;;;;;;;;4998416;28;20041;-71
2022/10/04 05:01:05;;;;;;;4.75;4.55;;;;;;;;;;5003974;28;20124;-68
2022/10/04 05:03:32;;;;;;;4.70;4.50;;;;;;;;;;5000995;28;20033;-71
2022/10/04 05:06:01;;;;;;;4.55;4.35;;;;;;;;;;5000127;28;20044;-70
2022/10/04 05:08:30;;;;;;;4.75;4.55;;;;;;;;;;4995603;28;20040;-71
2022/10/04 05:11:14;;;;;;;4.60;4.40;;;;;;;;;;4997790;28;20568;-72
2022/10/04 05:13:46;;;;;;;4.70;4.50;;;;;;;;;;4995511;28;20437;-70
2022/10/04 05:16:19;;;;;;;4.70;4.50;;;;;;;;;;4997901;28;20677;-70
2022/10/04 05:18:46;;;;;;;4.20;4.00;;;;;;;;;;4995468;28;20095;-71
2022/10/04 05:21:22;;;;;;;4.28;4.07;;;;;;;;;;4995686;28;20638;-71
2022/10/04 05:23:48;;;;;;;4.50;4.30;;;;;;;;;;5002261;28;20033;-71
2022/10/04 05:26:23;;;;;;;4.53;4.32;;;;;;;;;;5004211;28;20073;-70
2022/10/04 05:28:49;;;;;;;4.80;4.60;;;;;;;;;;4997438;28;20035;-70
2022/10/04 05:31:30;;;;;;;4.30;4.10;;;;;;;;;;5002053;28;20037;-70
2022/10/04 05:33:57;;;;;;;4.55;4.35;;;;;;;;;;4999179;28;20046;-70
2022/10/04 05:37:05;;;;;;;4.70;4.50;;;;;;;;;;5002397;28;20092;-70
2022/10/04 05:40:01;;;;;;;3.95;3.85;;;;;;;;;;4996148;28;20045;-70
2022/10/04 05:42:33;;;;;;;4.80;4.60;;;;;;;;;;4992159;28;20058;-70
2022/10/04 05:45:00;;;;;;;4.43;4.22;;;;;;;;;;4990807;28;20576;-72
2022/10/04 05:47:29;;;;;;;5.00;4.80;;;;;;;;;;4994541;28;20060;-70
2022/10/04 05:49:57;;;;;;;4.68;4.47;;;;;;;;;;5001761;28;20057;-68
2022/10/04 05:52:35;;;;;;;4.65;4.45;;;;;;;;;;4996356;28;20074;-71
2022/10/04 05:55:38;;;;;;;4.72;4.53;;;;;;;;;;4994257;28;20038;-71
2022/10/04 05:58:41;;;;;;;4.60;4.40;;;;;;;;;;4989844;28;20042;-70
2022/10/04 06:01:40;;;;;;;4.70;4.50;;;;;;;;;;4998695;28;20425;-71
2022/10/04 06:04:30;;;;;;;4.47;4.28;;;;;;;;;;4997782;28;20085;-70
2022/10/04 06:07:00;;;;;;;4.78;4.57;;;;;;;;;;5002814;28;20379;-69
2022/10/04 06:09:34;;;;;;;4.75;4.55;;;;;;;;;;4999373;28;20425;-70
2022/10/04 06:12:06;;;;;;;4.90;4.70;;;;;;;;;;4999832;28;20076;-69
2022/10/04 06:14:44;;;;;;;4.70;4.50;;;;;;;;;;4997955;28;20054;-70
2022/10/04 06:17:34;;;;;;;4.90;4.70;;;;;;;;;;4988405;28;20105;-71
2022/10/04 06:20:19;;;;;;;5.00;4.80;;;;;;;;;;4993783;28;20048;-71
2022/10/04 06:22:47;;;;;;;4.82;4.63;;;;;;;;;;4994310;28;20046;-71
2022/10/04 06:25:25;;;;;;;4.93;4.72;;;;;;;;;;4988542;28;20034;-70
2022/10/04 06:28:04;;;;;;;4.72;4.53;;;;;;;;;;5002192;28;20046;-71
2022/10/04 06:30:56;;;;;;;5.00;4.80;;;;;;;;;;4997055;28;20077;-71
2022/10/04 06:33:50;;;;;;;5.07;4.88;;;;;;;;;;4971161;28;20058;-70
2022/10/04 06:36:22;;;;;;;5.28;5.07;;;;;;;;;;4995758;28;20561;-71
2022/10/04 06:39:01;;;;;;;5.40;5.20;;;;;;;;;;5003631;28;20040;-68
2022/10/04 06:41:31;;;;;;;5.38;5.18;;;;;;;;;;4998046;28;20121;-72
2022/10/04 06:44:29;;;;;;;5.35;5.15;;;;;;;;;;5003200;28;20037;-71
2022/10/04 06:47:09;;;;;;;5.22;5.03;;;;;;;;;;4994546;28;20379;-70
2022/10/04 06:50:00;;;;;;;;;;;;;;;;;;5001763;28;20049;-70
2022/10/04 06:52:29;;;;;;;5.15;4.95;;;;;;;;;;4999294;28;19914;-71
2022/10/04 06:55:21;;;;;;;5.07;4.88;;;;;;;;;;5002620;28;20038;-71
2022/10/04 06:58:07;;;;;;;5.10;4.90;;;;;;;;;;5002471;28;20037;-72
2022/10/04 07:00:56;;;;;;;5.40;5.20;;;;;;;;;;4992442;28;20481;-71
2022/10/04 07:03:48;;;;;;;5.43;5.22;;;;;;;;;;4999485;28;20041;-71
2022/10/04 07:06:21;;;;;;;5.10;4.90;;;;;;;;;;4992818;28;20046;-71
2022/10/04 07:08:51;;;;;;;5.20;5.00;;;;;;;;;;5005659;28;20069;-72
2022/10/04 07:11:42;;;;;;;5.45;5.25;;;;;;;;;;5003230;28;20030;-70
2022/10/04 07:14:31;;;;;;;5.45;5.25;;;;;;;;;;4993351;28;20053;-70
2022/10/04 07:17:04;;;;;;;5.30;5.10;;;;;;;;;;4995951;28;20026;-69
2022/10/04 07:19:45;;;;;;;5.60;5.40;;;;;;;;;;4999367;28;20100;-72
2022/10/04 07:22:21;;;;;;;5.80;5.50;;;;;;;;;;5002800;28;20038;-70
2022/10/04 07:24:56;;;;;;;6.10;5.80;;;;;;;;;;4997040;28;20034;-70
2022/10/04 07:27:31;;;;;;;6.95;6.55;;;;;;;;;;4994416;28;20042;-71
2022/10/04 07:30:00;;;;;;;5.50;5.28;;;;;;;;;;4996118;28;20060;-71
2022/10/04 07:32:35;;;;;;;5.30;5.10;;;;;;;;;;5020481;28;20026;-74
2022/10/04 07:35:12;;;;;;;5.90;5.60;;;;;;;;;;5000507;28;20061;-71
2022/10/04 07:38:05;;;;;;;5.60;5.40;;;;;;;;;;4997218;28;20037;-72
2022/10/04 07:40:35;;;;;;;5.75;5.50;;;;;;;;;;4997844;28;20060;-72
2022/10/04 07:43:20;;;;;;;5.53;5.32;;;;;;;;;;4999884;28;20041;-72
2022/10/04 07:45:48;;;;;;;5.50;5.30;;;;;;;;;;5003067;28;20033;-71
2022/10/04 07:48:15;;;;;;;5.88;5.57;;;;;;;;;;5001568;28;20587;-72
2022/10/04 07:51:08;;;;;;;5.90;5.60;;;;;;;;;;5001685;28;20044;-71
2022/10/04 07:53:44;;;;;;;6.28;5.97;;;;;;;;;;4995236;28;20038;-71
2022/10/04 07:56:20;;;;;;;5.72;5.43;;;;;;;;;;4996211;28;20045;-72
2022/10/04 07:59:10;;;;;;;6.03;5.72;;;;;;;;;;4998205;28;20119;-71
2022/10/04 08:01:48;;;;;;;5.38;5.18;;;;;;;;;;5003454;28;20069;-71
2022/10/04 08:04:40;;;;;;;5.97;5.68;;;;;;;;;;5003506;28;20045;-71
2022/10/04 08:07:22;;;;;;;6.18;5.88;;;;;;;;;;5001666;28;20026;-72
2022/10/04 08:09:56;;;;;;;5.82;5.53;;;;;;;;;;4999539;28;20117;-72
2022/10/04 08:12:51;;;;;;;5.90;5.60;;;;;;;;;;5008761;28;20033;-71
2022/10/04 08:15:34;;;;;;;6.13;5.82;;;;;;;;;;4995130;28;20066;-72
2022/10/04 08:18:52;;;;;;;6.28;5.97;;;;;;;;;;4999055;28;20487;-72
2022/10/04 08:21:25;;;;;;;5.90;5.60;;;;;;;;;;4936061;29;20039;-71
2022/10/04 08:23:54;;;;;;;6.43;6.13;;;;;;;;;;4941569;29;20051;-71
2022/10/04 08:26:45;;;;;;;6.35;6.05;;;;;;;;;;4922951;29;20108;-71
2022/10/04 08:29:47;;;;;;;5.82;5.53;;;;;;;;;;4939483;29;20035;-72
2022/10/04 08:32:37;;;;;;;6.13;5.82;;;;;;;;;;4937048;29;20051;-71
2022/10/04 08:35:43;;;;;;;6.35;6.05;;;;;;;;;;4936034;29;20667;-72
2022/10/04 08:38:15;;;;;;;6.28;5.97;;;;;;;;;;4835025;29;20053;-72
2022/10/04 08:41:05;;;;;;;6.35;6.05;;;;;;;;;;4833358;29;20122;-71
2022/10/04 08:43:58;;;;;;;6.45;6.15;;;;;;;;;;4831858;29;20045;-71
2022/10/04 08:46:58;;;;;;;6.70;6.40;;;;;;;;;;4834886;29;20064;-71
2022/10/04 08:49:42;;;;;;;;;;;;;;;;;;4833436;29;20087;-71
2022/10/04 08:52:27;;;;;;;6.80;6.50;;;;;;;;;;4834635;29;19916;-71
2022/10/04 08:55:33;;;;;;;7.10;6.57;;;;;;;;;;4839219;29;20114;-70
2022/10/04 08:58:25;;;;;;;6.60;6.30;;;;;;;;;;4889547;29;20152;-71
2022/10/04 09:01:06;;;;;;;6.30;6.00;;;;;;;;;;4908326;29;20075;-71
2022/10/04 09:03:41;;;;;;;6.28;5.97;;;;;;;;;;4909166;29;20067;-71
2022/10/04 09:06:36;;;;;;;6.60;6.30;;;;;;;;;;4907666;29;20264;-71
2022/10/04 09:09:23;;;;;;;6.40;6.10;;;;;;;;;;4909012;29;20726;-71
2022/10/04 09:12:14;;;;;;;6.50;6.20;;;;;;;;;;4941293;28;20490;-70
2022/10/04 09:15:00;;;;;;;6.00;5.70;;;;;;;;;;4994803;28;20042;-71
2022/10/04 09:17:38;;;;;;;6.38;6.07;;;;;;;;;;4996979;28;20025;-71
2022/10/04 09:20:42;;;;;;;6.30;6.00;;;;;;;;;;4998181;28;20560;-71
2022/10/04 09:23:11;;;;;;;6.35;6.05;;;;;;;;;;5004758;28;20601;-71
2022/10/04 09:25:40;;;;;;;6.25;5.95;;;;;;;;;;4998596;28;20069;-71
2022/10/04 09:28:26;;;;;;;6.65;6.35;;;;;;;;;;4991516;28;20074;-71
2022/10/04 09:31:26;;;;;;;6.40;6.10;;;;;;;;;;4991660;28;20470;-71
2022/10/04 09:34:43;;;;;;;5.90;5.60;;;;;;;;;;5004684;28;20038;-71
2022/10/04 09:37:29;;;;;;;6.45;6.15;;;;;;;;;;4928494;28;20050;-71
2022/10/04 09:40:36;;;;;;;6.07;5.78;;;;;;;;;;4994056;28;20053;-71
2022/10/04 09:43:33;;;;;;;6.80;6.50;;;;;;;;;;4995412;28;20069;-71
2022/10/04 09:46:10;;;;;;;6.13;5.82;;;;;;;;;;4990825;28;20070;-71
2022/10/04 09:49:17;;;;;;;6.40;6.10;;;;;;;;;;4995697;28;20034;-71
2022/10/04 09:52:20;;;;;;;6.80;6.50;;;;;;;;;;4997646;28;20038;-71
2022/10/04 09:55:25;;;;;;;6.55;6.25;;;;;;;;;;5019750;28;20069;-71
2022/10/04 09:58:21;;;;;;;6.70;6.40;;;;;;;;;;4996503;28;21103;-71
2022/10/04 10:00:58;;;;;;;6.55;6.25;;;;;;;;;;4999886;28;20088;-71
2022/10/04 10:03:47;;;;;;;7.57;7.07;;;;;;;;;;4989296;28;20030;-71
2022/10/04 10:06:33;;;;;;;6.60;6.30;;;;;;;;;;4993562;28;20144;-71
2022/10/04 10:16:14;;;;;;;6.72;6.43;;;;;;;;;;4997308;28;20497;-71
2022/10/04 10:19:14;;;;;;;6.60;6.30;;;;;;;;;;4947341;29;20090;-71
2022/10/04 10:22:13;;;;;;;6.40;6.10;;;;;;;;;;4949620;29;20050;-71
2022/10/04 10:24:53;;;;;;;6.50;6.20;;;;;;;;;;4952046;28;20042;-71
2022/10/04 10:27:37;;;;;;;7.07;6.78;;;;;;;;;;4934142;29;20533;-71
2022/10/04 10:30:30;;;;;;;6.80;6.50;;;;;;;;;;4950179;28;20570;-71
2022/10/04 10:33:29;;;;;;;6.50;6.20;;;;;;;;;;4933035;29;20035;-71
2022/10/04 10:36:04;;;;;;;6.82;6.53;;;;;;;;;;4949362;29;20058;-72
2022/10/04 10:38:39;;;;;;;6.60;6.30;;;;;;;;;;4952806;28;20395;-71
2022/10/04 10:41:18;;;;;;;6.70;6.40;;;;;;;;;;4952219;28;20498;-72
2022/10/04 10:44:00;;;;;;;6.82;6.53;;;;;;;;;;4948781;28;20137;-71
2022/10/04 10:46:26;;;;;;;7.63;7.22;;;;;;;;;;4949779;28;20570;-71
2022/10/04 10:49:29;;;;;;;6.90;6.60;;;;;;;;;;4949321;28;20047;-72
2022/10/04 10:52:00;;;;;;;6.90;6.60;;;;;;;;;;4948920;29;20047;-72
2022/10/04 10:54:54;;;;;;;6.57;6.28;;;;;;;;;;4951984;28;20470;-72
2022/10/04 10:57:57;;;;;;;6.72;6.43;;;;;;;;;;5000219;28;20045;-72
2022/10/04 11:00:30;;;;;;;6.75;6.45;;;;;;;;;;5005515;28;20426;-72
2022/10/04 11:03:10;;;;;;;6.50;6.20;;;;;;;;;;4997637;28;20080;-72
2022/10/04 11:06:08;;;;;;;6.57;6.28;;;;;;;;;;4998159;28;20061;-72
2022/10/04 11:08:54;;;;;;;6.50;6.20;;;;;;;;;;5002365;28;20614;-72
2022/10/04 11:11:47;;;;;;;6.38;6.07;;;;;;;;;;5007513;28;20525;-72
2022/10/04 11:14:33;;;;;;;6.40;6.10;;;;;;;;;;4998674;28;20038;-72
2022/10/04 11:17:31;;;;;;;7.43;7.03;;;;;;;;;;4991126;28;20046;-72
2022/10/04 11:20:25;;;;;;;6.57;6.28;;;;;;;;;;4992947;28;20490;-72
2022/10/04 11:23:13;;;;;;;6.95;6.65;;;;;;;;;;4996435;28;20060;-73
2022/10/04 11:26:01;;;;;;;6.65;6.35;;;;;;;;;;4996863;28;20076;-72
2022/10/04 11:28:45;;;;;;;6.78;6.47;;;;;;;;;;4997629;28;20537;-72
2022/10/04 11:31:26;;;;;;;6.45;6.15;;;;;;;;;;5000691;28;20069;-72
2022/10/04 11:34:56;;;;;;;6.50;6.20;;;;;;;;;;5007390;28;20046;-72
2022/10/04 11:37:34;;;;;;;6.70;6.40;;;;;;;;;;4894032;29;20435;-72
2022/10/04 11:40:24;;;;;;;6.60;6.30;;;;;;;;;;4926825;29;20050;-72
2022/10/04 11:43:11;;;;;;;6.10;5.80;;;;;;;;;;4924797;29;20035;-72
2022/10/04 11:46:05;;;;;;;6.50;6.20;;;;;;;;;;4922021;29;20094;-72
2022/10/04 11:48:52;;;;;;;7.30;6.90;;;;;;;;;;4917998;29;20111;-72
2022/10/04 11:51:25;;;;;;;6.90;6.60;;;;;;;;;;4915930;29;20043;-72
2022/10/04 11:54:14;;;;;;;6.93;6.63;;;;;;;;;;4926372;29;20079;-72
2022/10/04 11:56:48;;;;;;;7.00;6.70;;;;;;;;;;4920537;29;20439;-73
2022/10/04 11:59:38;;;;;;;6.90;6.60;;;;;;;;;;4929537;29;20039;-72
2022/10/04 12:02:27;;;;;;;6.90;6.60;;;;;;;;;;4932685;29;20059;-72
2022/10/04 12:05:31;;;;;;;7.00;6.60;;;;;;;;;;4927502;29;20867;-72
2022/10/04 12:08:19;;;;;;;6.95;6.65;;;;;;;;;;4925858;29;20122;-72
2022/10/04 12:11:17;;;;;;;6.90;6.60;;;;;;;;;;4928787;29;20047;-72
2022/10/04 12:14:20;;;;;;;6.72;6.43;;;;;;;;;;4983827;28;20057;-72
2022/10/04 12:17:07;;;;;;;6.85;6.55;;;;;;;;;;4957958;28;20049;-72
2022/10/04 12:20:01;;;;;;;6.63;6.32;;;;;;;;;;4995565;28;20541;-73
2022/10/04 12:22:39;;;;;;;6.80;6.50;;;;;;;;;;4994487;28;20758;-72
2022/10/04 12:25:41;;;;;;;6.90;6.60;;;;;;;;;;4999684;28;20034;-74
2022/10/04 12:28:23;;;;;;;6.90;6.60;;;;;;;;;;4998705;28;20042;-74
2022/10/04 12:31:15;;;;;;;6.80;6.50;;;;;;;;;;4994662;28;20056;-72
2022/10/04 12:33:53;;;;;;;6.78;6.47;;;;;;;;;;5003255;28;20053;-73
2022/10/04 12:36:25;;;;;;;6.75;6.45;;;;;;;;;;5000647;28;20037;-72
2022/10/04 12:39:04;;;;;;;6.68;6.38;;;;;;;;;;4990575;28;20033;-72
2022/10/04 12:41:33;;;;;;;6.70;6.40;;;;;;;;;;5000808;28;20038;-72
2022/10/04 12:44:20;;;;;;;6.30;6.00;;;;;;;;;;4995854;28;20413;-73
2022/10/04 12:47:09;;;;;;;7.03;6.72;;;;;;;;;;5001330;28;20038;-72
2022/10/04 12:53:49;;;;;;;6.53;6.22;;;;;;;;;;4998477;28;20517;-73
2022/10/04 12:56:36;;;;;;;6.63;6.32;;;;;;;;;;4999943;28;20029;-73
2022/10/04 12:59:24;;;;;;;7.22;6.82;;;;;;;;;;4997328;28;20038;-73
2022/10/04 13:02:20;;;;;;;6.90;6.60;;;;;;;;;;4995372;28;20046;-73
2022/10/04 13:04:58;;;;;;;7.15;6.82;;;;;;;;;;5000895;28;20037;-73
2022/10/04 13:07:30;;;;;;;7.60;7.20;;;;;;;;;;4994706;28;20815;-73
2022/10/04 13:10:43;;;;;;;6.90;6.60;;;;;;;;;;4996928;28;20437;-73
2022/10/04 13:13:23;;;;;;;7.10;6.80;;;;;;;;;;4997440;28;20062;-73
2022/10/04 13:15:58;;;;;;;7.10;6.80;;;;;;;;;;4993585;28;20447;-72
2022/10/04 13:18:50;;;;;;;6.97;6.68;;;;;;;;;;4994096;28;20459;-72
2022/10/04 13:21:42;;;;;;;7.53;7.13;;;;;;;;;;4994913;28;20030;-72
2022/10/04 13:24:23;;;;;;;6.93;6.63;;;;;;;;;;4998305;28;20124;-72
2022/10/04 13:27:02;;;;;;;7.07;6.75;;;;;;;;;;4991793;28;20128;-72
2022/10/04 13:29:34;;;;;;;6.90;6.60;;;;;;;;;;4997961;28;20041;-72
2022/10/04 13:32:12;;;;;;;6.90;6.60;;;;;;;;;;4989334;28;20033;-73
2022/10/04 13:34:43;;;;;;;6.75;6.45;;;;;;;;;;4995604;28;20049;-73
2022/10/04 13:37:12;;;;;;;6.60;6.30;;;;;;;;;;4996471;28;20387;-73
2022/10/04 13:39:56;;;;;;;6.60;6.30;;;;;;;;;;4996971;28;20046;-73
2022/10/04 13:42:47;;;;;;;6.90;6.60;;;;;;;;;;4993616;28;20531;-73
2022/10/04 13:45:32;;;;;;;6.90;6.60;;;;;;;;;;4991311;28;20106;-72
2022/10/04 13:48:35;;;;;;;6.90;6.60;;;;;;;;;;4988010;28;20447;-72
2022/10/04 13:51:15;;;;;;;7.28;6.80;;;;;;;;;;5002319;28;20517;-72
2022/10/04 13:56:50;;;;;;;6.70;6.40;;;;;;;;;;4994285;28;20449;-73
2022/10/04 13:59:22;;;;;;;6.93;6.63;;;;;;;;;;4994406;28;20038;-73
2022/10/04 14:02:24;;;;;;;7.03;6.72;;;;;;;;;;4995757;28;20616;-72
2022/10/04 14:05:02;;;;;;;6.55;6.25;;;;;;;;;;5000099;28;20508;-71
2022/10/04 14:07:31;;;;;;;6.80;6.50;;;;;;;;;;4998704;28;20027;-73
2022/10/04 14:10:18;;;;;;;6.80;6.50;;;;;;;;;;4996296;28;20049;-72
2022/10/04 14:13:11;;;;;;;6.82;6.53;;;;;;;;;;4998488;28;20065;-72
2022/10/04 14:16:05;;;;;;;7.40;7.00;;;;;;;;;;4993927;28;20034;-71
2022/10/04 14:18:50;;;;;;;7.70;7.30;;;;;;;;;;4997956;28;20053;-72
2022/10/04 14:22:01;;;;;;;7.15;6.85;;;;;;;;;;4996535;28;20099;-72
2022/10/04 14:24:35;;;;;;;7.00;6.70;;;;;;;;;;4999514;28;20037;-73
2022/10/04 14:27:16;;;;;;;6.95;6.65;;;;;;;;;;4997091;28;20046;-71
2022/10/04 14:30:05;;;;;;;7.57;7.18;;;;;;;;;;4998588;28;20038;-72
2022/10/04 14:32:52;;;;;;;6.50;6.20;;;;;;;;;;5006200;28;20041;-73
2022/10/04 14:35:24;;;;;;;6.80;6.50;;;;;;;;;;5002551;28;20045;-72
2022/10/04 14:38:19;;;;;;;6.90;6.60;;;;;;;;;;5001973;28;20611;-72
2022/10/04 14:41:03;;;;;;;6.50;6.20;;;;;;;;;;4993962;28;20050;-73
2022/10/04 14:43:28;;;;;;;6.38;6.07;;;;;;;;;;4999872;28;20044;-73
2022/10/04 14:46:37;;;;;;;6.80;6.50;;;;;;;;;;4994188;28;20454;-72
2022/10/04 14:49:28;;;;;;;6.78;6.47;;;;;;;;;;4968491;28;20061;-72
2022/10/04 14:52:05;;;;;;;6.55;6.25;;;;;;;;;;4999598;28;20088;-72
2022/10/04 14:54:41;;;;;;;6.75;6.45;;;;;;;;;;4998209;28;20311;-72
2022/10/04 14:57:59;;;;;;;6.60;6.30;;;;;;;;;;5005561;28;20042;-72
2022/10/04 15:00:35;;;;;;;6.85;6.55;;;;;;;;;;4959964;28;20441;-72
2022/10/04 15:03:27;;;;;;;6.50;6.20;;;;;;;;;;5000653;28;20466;-72
2022/10/04 15:05:58;;;;;;;6.35;6.05;;;;;;;;;;5005305;28;20038;-72
2022/10/04 15:08:23;;;;;;;6.38;6.07;;;;;;;;;;4994614;28;20038;-72
2022/10/04 15:11:03;;;;;;;6.70;6.40;;;;;;;;;;5004815;28;20038;-72
2022/10/04 15:13:57;;;;;;;6.65;6.35;;;;;;;;;;4999127;28;20029;-71
2022/10/04 15:16:41;;;;;;;6.93;6.63;;;;;;;;;;4996718;28;20045;-72
2022/10/04 15:19:24;;;;;;;6.63;6.32;;;;;;;;;;5001467;28;20065;-72
2022/10/04 15:22:02;;;;;;;6.63;6.32;;;;;;;;;;4999756;28;20034;-72
2022/10/04 15:24:48;;;;;;;6.20;5.90;;;;;;;;;;5008367;28;20633;-72
2022/10/04 15:27:20;;;;;;;6.30;6.00;;;;;;;;;;4997582;28;20685;-72
2022/10/04 15:30:04;;;;;;;6.20;5.90;;;;;;;;;;5005095;28;20393;-72
2022/10/04 15:32:55;;;;;;;6.65;6.35;;;;;;;;;;5000896;28;20034;-71
2022/10/04 15:35:39;;;;;;;6.32;6.03;;;;;;;;;;4997519;28;20092;-71
2022/10/04 15:38:32;;;;;;;6.30;6.00;;;;;;;;;;4996418;28;20041;-72
2022/10/04 15:41:18;;;;;;;6.40;6.10;;;;;;;;;;5005743;28;20069;-71
2022/10/04 15:44:10;;;;;;;6.40;6.10;;;;;;;;;;5004839;28;20065;-71
2022/10/04 15:46:49;;;;;;;6.90;6.60;;;;;;;;;;4999852;28;20057;-71
2022/10/04 15:49:27;;;;;;;6.60;6.30;;;;;;;;;;5001110;28;20129;-71
2022/10/04 15:52:02;;;;;;;6.60;6.30;;;;;;;;;;4995614;28;20050;-71
2022/10/04 15:54:42;;;;;;;6.40;6.10;;;;;;;;;;5004839;28;20489;-71
2022/10/04 15:57:34;;;;;;;6.38;6.07;;;;;;;;;;5004484;28;20571;-71
2022/10/04 16:00:46;;;;;;;6.60;6.30;;;;;;;;;;4996710;28;20579;-71
2022/10/04 16:03:31;;;;;;;6.70;6.40;;;;;;;;;;4972827;28;20144;-71
2022/10/04 16:06:20;;;;;;;10.25;6.43;;;;;;;;;;4992908;28;20030;-71
2022/10/04 16:08:59;;;;;;;6.43;6.13;;;;;;;;;;4996413;28;20069;-70
2022/10/04 16:11:35;;;;;;;6.55;6.25;;;;;;;;;;4995324;28;20040;-70
2022/10/04 16:14:19;;;;;;;6.53;6.22;;;;;;;;;;4998382;28;20121;-71
2022/10/04 16:17:08;;;;;;;6.50;6.20;;;;;;;;;;4992819;28;20030;-71
2022/10/04 16:19:44;;;;;;;6.50;6.20;;;;;;;;;;5001155;28;20452;-71
2022/10/04 16:22:14;;;;;;;6.28;5.97;;;;;;;;;;4998211;28;20060;-71